NVVW

Details ICAO NVVW
Name TANNA
Region Vanuatu
Timezone Pacific/Efate (UTC+11.0)
Plans Departing 3
Arriving 3
Stats Elevation 19 ft / 6 m (AMSL)
Location -19.454996° 169.223757°
Runways 1
Magnetic Variation 12.090° E
Sunrise 2017-12-12 17:59:55 UTC / 2017-12-13 04:59:55 Local
Sunset 2017-12-13 07:17:06 UTC / 2017-12-13 18:17:06 Local
Advertisement - Login to hide

Runways

ID Width Length Bearing (true) Bearing (mag) Surface Threshold Offset Overrun Length
15 98 ft / 30 m 4,020 ft / 1,225 m 157.70° 145.61° Asphalt 0 ft / 0 m 0 ft / 0 m
33 98 ft / 30 m 4,020 ft / 1,225 m 337.70° 325.61° Asphalt 0 ft / 0 m 0 ft / 0 m

Map

Weather


0- 5 10 15 20 25 30 35+ Temperature / ° C

Clouds and Precipitation
Forecast for 2017-12-13 00:00 UTC. Updated 29 minutes ago

Ground ~20,000 ft ~40,000 ft Winds

METAR

NVVW 122300Z 09008KT 9999 FEW025 BKN040 30/26 Q1009

TAF

Not found

Frequencies

Unicom 120.70 MHz CTAF
Warning: Do not use this data for real-world aviation or navigation. No guarantee of current accuracy is given.